Time;durP1;ratioP1;P1;durP2;ratioP2;P2;SDS_P1;SDS_P2;PMS_P1;PMS_P2;Temp;Humidity;BMP_temperature;BMP_pressure;BME280_temperature;BME280_humidity;BME280_pressure;Samples;Min_cycle;Max_cycle;Signal;HPM_P1;HPM_P2
2022/07/04 00:00:17;;;;;;;2.10;1.90;;;20.80;99.90;;;;;;4975697;28;20504;-82
2022/07/04 00:03:02;;;;;;;2.80;1.67;;;20.70;99.90;;;;;;4972167;28;20474;-82
2022/07/04 00:05:46;;;;;;;2.27;2.07;;;20.50;99.90;;;;;;4992732;28;20432;-82
2022/07/04 00:08:30;;;;;;;1.93;1.83;;;20.50;99.90;;;;;;5030880;28;20447;-81
2022/07/04 00:11:14;;;;;;;2.00;1.90;;;20.40;99.90;;;;;;5030770;28;20481;-82
2022/07/04 00:13:59;;;;;;;2.00;1.90;;;20.50;99.90;;;;;;5030388;28;20457;-82
2022/07/04 00:16:43;;;;;;;2.20;2.00;;;20.20;99.90;;;;;;5029902;28;20452;-83
2022/07/04 00:19:28;;;;;;;4.80;2.00;;;20.10;99.90;;;;;;5029798;28;20443;-82
2022/07/04 00:22:13;;;;;;;2.57;2.37;;;20.10;99.90;;;;;;5031005;28;20404;-83
2022/07/04 00:24:59;;;;;;;2.90;2.13;;;20.10;99.90;;;;;;5030227;28;20473;-82
2022/07/04 00:27:43;;;;;;;1.80;1.70;;;20.00;99.90;;;;;;5031186;28;20403;-82
2022/07/04 00:30:28;;;;;;;3.00;2.80;;;19.90;99.90;;;;;;5030367;28;20887;-82
2022/07/04 00:33:13;;;;;;;2.33;2.03;;;19.80;99.90;;;;;;5043314;28;20397;-82
2022/07/04 00:35:58;;;;;;;2.10;2.00;;;19.80;99.90;;;;;;5029904;28;20384;-82
2022/07/04 00:38:42;;;;;;;2.23;2.03;;;19.70;99.90;;;;;;5030998;28;20454;-82
2022/07/04 00:41:27;;;;;;;2.23;2.03;;;19.50;99.90;;;;;;5031098;28;20376;-82
2022/07/04 00:44:13;;;;;;;1.77;1.67;;;19.50;99.90;;;;;;5031404;28;20407;-82
2022/07/04 00:46:57;;;;;;;2.23;2.03;;;19.30;99.90;;;;;;5030193;28;20456;-82
2022/07/04 00:49:43;;;;;;;2.10;2.00;;;19.50;99.90;;;;;;5030277;28;20395;-82
2022/07/04 00:52:28;;;;;;;3.13;2.60;;;19.70;99.90;;;;;;5030521;28;20416;-81
2022/07/04 00:55:14;;;;;;;2.33;2.13;;;20.10;99.90;;;;;;5014234;28;20474;-80
2022/07/04 00:57:59;;;;;;;4.80;2.20;;;20.40;99.90;;;;;;5033237;28;20188;-80
2022/07/04 01:00:44;;;;;;;2.20;2.10;;;20.50;99.90;;;;;;5033633;28;20396;-80
2022/07/04 01:03:28;;;;;;;2.20;2.10;;;20.70;99.90;;;;;;5053595;28;20395;-81
2022/07/04 01:06:15;;;;;;;3.60;2.30;;;20.80;99.90;;;;;;5055678;28;20386;-79
2022/07/04 01:09:01;;;;;;;1.97;1.87;;;20.80;99.90;;;;;;5040656;28;20412;-80
2022/07/04 01:11:45;;;;;;;2.00;1.90;;;20.80;99.90;;;;;;5055225;28;20386;-80
2022/07/04 01:14:29;;;;;;;7.33;2.40;;;20.80;99.90;;;;;;5055772;28;20441;-80
2022/07/04 01:17:14;;;;;;;2.10;2.00;;;20.80;99.90;;;;;;5055984;28;20379;-80
2022/07/04 01:19:59;;;;;;;2.17;2.00;;;20.90;99.90;;;;;;5052996;28;20490;-80
2022/07/04 01:22:44;;;;;;;3.40;2.57;;;20.90;99.90;;;;;;5053944;28;20391;-79
2022/07/04 01:25:30;;;;;;;1.90;1.80;;;20.90;99.90;;;;;;5054535;28;20407;-79
2022/07/04 01:28:14;;;;;;;2.07;1.97;;;20.80;99.90;;;;;;5053938;28;20455;-79
2022/07/04 01:30:58;;;;;;;2.30;2.10;;;20.80;99.90;;;;;;5053583;28;20406;-79
2022/07/04 01:33:43;;;;;;;2.00;1.90;;;20.80;99.90;;;;;;5053070;28;20402;-80
2022/07/04 01:36:28;;;;;;;2.47;2.27;;;20.80;99.90;;;;;;5023998;28;20475;-80
2022/07/04 01:39:12;;;;;;;2.30;2.10;;;20.80;99.90;;;;;;5053517;28;20463;-78
2022/07/04 01:41:56;;;;;;;2.30;2.20;;;20.70;99.90;;;;;;5052870;28;20403;-79
2022/07/04 01:44:41;;;;;;;2.20;2.10;;;20.60;99.90;;;;;;5051674;28;20391;-79
2022/07/04 01:47:26;;;;;;;2.20;2.00;;;20.70;99.90;;;;;;5051350;28;20383;-79
2022/07/04 01:50:12;;;;;;;2.50;2.30;;;20.70;99.90;;;;;;5038066;28;20391;-79
2022/07/04 01:52:56;;;;;;;2.03;1.93;;;20.70;99.90;;;;;;5048278;28;20411;-81
2022/07/04 01:55:41;;;;;;;2.80;2.20;;;20.70;99.90;;;;;;5052941;28;20434;-79
2022/07/04 01:58:25;;;;;;;1.97;1.77;;;20.70;99.90;;;;;;5049911;28;20858;-78
2022/07/04 02:04:09;;;;;;;3.03;2.83;;;20.60;99.90;;;;;;5029388;28;20407;-80
2022/07/04 02:06:53;;;;;;;2.80;2.60;;;20.50;99.90;;;;;;5032385;28;20400;-77
2022/07/04 02:09:38;;;;;;;3.67;2.60;;;20.50;99.90;;;;;;5032717;28;20415;-78
2022/07/04 02:15:24;;;;;;;2.30;2.10;;;20.50;99.90;;;;;;5031064;28;20487;-78
2022/07/04 02:18:11;;;;;;;3.27;3.07;;;20.50;99.90;;;;;;5029361;28;20412;-78
2022/07/04 02:20:55;;;;;;;4.50;2.30;;;20.40;99.90;;;;;;5034677;28;20424;-79
2022/07/04 02:23:40;;;;;;;2.93;2.40;;;20.40;99.90;;;;;;5029543;28;20412;-78
2022/07/04 02:26:24;;;;;;;2.97;2.73;;;20.40;99.90;;;;;;5028672;28;20457;-78
2022/07/04 02:29:09;;;;;;;3.00;2.70;;;20.40;99.90;;;;;;5027924;28;20911;-78
2022/07/04 02:31:54;;;;;;;2.67;2.47;;;20.30;99.90;;;;;;5027521;28;20445;-79
2022/07/04 02:34:38;;;;;;;2.63;2.43;;;20.30;99.90;;;;;;5038811;28;20418;-78
2022/07/04 02:37:23;;;;;;;2.83;2.37;;;20.30;99.90;;;;;;5054213;28;20383;-79
2022/07/04 02:40:08;;;;;;;2.47;2.37;;;20.30;99.90;;;;;;5050806;28;21009;-79
2022/07/04 02:42:52;;;;;;;2.50;2.30;;;20.20;99.90;;;;;;5050312;28;20395;-80
2022/07/04 02:45:38;;;;;;;3.67;3.37;;;20.20;99.90;;;;;;5049525;28;20386;-80
2022/07/04 02:48:23;;;;;;;3.40;2.80;;;20.20;99.90;;;;;;5050512;28;20406;-78
2022/07/04 02:51:07;;;;;;;2.80;2.60;;;20.20;99.90;;;;;;5050608;28;20434;-79
2022/07/04 02:53:52;;;;;;;2.63;2.43;;;20.30;99.90;;;;;;5049931;28;20387;-82
2022/07/04 02:56:37;;;;;;;2.83;2.63;;;20.20;99.90;;;;;;5047462;28;20454;-82
2022/07/04 02:59:23;;;;;;;2.60;2.20;;;20.20;99.90;;;;;;5047333;28;20824;-82
2022/07/04 03:02:07;;;;;;;2.07;1.93;;;20.10;99.90;;;;;;5046981;28;20478;-82
2022/07/04 03:04:52;;;;;;;3.13;2.93;;;20.10;99.90;;;;;;5047480;28;20383;-82
2022/07/04 03:07:36;;;;;;;3.23;2.93;;;19.80;99.90;;;;;;5048043;28;20403;-82
2022/07/04 03:10:22;;;;;;;2.70;2.50;;;19.80;99.90;;;;;;5047106;28;20442;-82
2022/07/04 03:13:06;;;;;;;3.17;2.87;;;19.90;99.90;;;;;;5047920;28;20386;-82
2022/07/04 03:15:51;;;;;;;2.90;2.70;;;20.10;99.90;;;;;;5047316;28;20430;-82
2022/07/04 03:18:36;;;;;;;2.90;2.70;;;20.10;99.90;;;;;;5048141;28;20446;-82
2022/07/04 03:21:22;;;;;;;3.07;2.87;;;20.00;99.90;;;;;;5051343;28;20463;-80
2022/07/04 03:24:08;;;;;;;2.60;2.40;;;20.00;99.90;;;;;;5049718;28;20395;-79
2022/07/04 03:26:52;;;;;;;2.47;2.27;;;20.00;99.90;;;;;;5053307;28;20418;-78
2022/07/04 03:29:37;;;;;;;4.97;3.17;;;20.00;99.90;;;;;;5049483;28;20421;-79
2022/07/04 03:32:22;;;;;;;3.07;2.77;;;20.10;99.90;;;;;;5053659;28;20418;-79
2022/07/04 03:35:06;;;;;;;2.50;2.40;;;20.10;99.90;;;;;;5050474;28;20387;-82
2022/07/04 03:37:52;;;;;;;3.03;2.63;;;20.20;99.90;;;;;;5046517;28;20403;-82
2022/07/04 03:40:38;;;;;;;2.57;2.40;;;20.20;99.90;;;;;;5047079;28;20411;-82
2022/07/04 03:43:22;;;;;;;3.57;3.30;;;20.20;99.90;;;;;;5034264;28;20370;-82
2022/07/04 03:46:06;;;;;;;4.70;2.40;;;20.10;99.90;;;;;;5058497;28;20964;-82
2022/07/04 03:48:51;;;;;;;3.57;2.30;;;20.10;99.90;;;;;;5053411;28;20412;-82
2022/07/04 03:51:36;;;;;;;2.27;2.13;;;20.10;99.90;;;;;;5069324;28;20405;-82
2022/07/04 03:54:20;;;;;;;2.50;2.37;;;20.00;99.90;;;;;;5070424;28;20600;-82
2022/07/04 03:57:07;;;;;;;2.60;2.40;;;20.00;99.90;;;;;;5075464;28;21001;-82
2022/07/04 03:59:51;;;;;;;2.97;2.73;;;20.00;99.90;;;;;;5049703;28;20442;-82
2022/07/04 04:02:36;;;;;;;2.63;2.43;;;20.00;99.90;;;;;;5050144;28;20528;-82
2022/07/04 04:05:28;;;;;;;5.20;2.97;;;20.00;99.90;;;;;;5049707;28;20391;-83
2022/07/04 04:08:13;;;;;;;3.70;2.67;;;20.00;99.90;;;;;;5049961;28;20423;-82
2022/07/04 04:10:58;;;;;;;2.70;2.50;;;20.00;99.90;;;;;;5049676;28;20468;-82
2022/07/04 04:13:42;;;;;;;3.17;2.57;;;20.00;99.90;;;;;;5050912;28;20386;-83
2022/07/04 04:16:27;;;;;;;3.70;2.90;;;20.10;99.90;;;;;;5068510;28;20429;-82
2022/07/04 04:19:12;;;;;;;3.30;2.90;;;20.20;99.90;;;;;;5070530;28;20580;-82
2022/07/04 04:21:56;;;;;;;2.60;2.40;;;20.30;99.90;;;;;;5069759;28;20461;-83
2022/07/04 04:24:40;;;;;;;8.93;3.10;;;20.30;99.90;;;;;;5058279;28;20437;-82
2022/07/04 04:27:25;;;;;;;2.77;2.57;;;20.40;99.90;;;;;;5068463;28;20426;-81
2022/07/04 04:30:10;;;;;;;3.27;3.00;;;20.40;99.90;;;;;;5070192;28;20437;-82
2022/07/04 04:32:54;;;;;;;4.93;2.50;;;20.30;99.90;;;;;;5069298;28;20405;-82
2022/07/04 04:35:39;;;;;;;2.77;2.57;;;20.40;99.90;;;;;;5070222;28;20421;-83
2022/07/04 04:38:23;;;;;;;2.87;2.60;;;20.40;99.90;;;;;;5054409;28;20448;-82
2022/07/04 04:41:08;;;;;;;5.30;3.27;;;20.30;99.90;;;;;;5069120;28;20466;-83
2022/07/04 04:43:53;;;;;;;2.83;2.63;;;20.40;99.90;;;;;;5069024;28;20441;-81
2022/07/04 04:46:37;;;;;;;3.20;2.63;;;20.40;99.90;;;;;;5068827;28;20389;-83
2022/07/04 04:49:25;;;;;;;3.07;2.83;;;20.40;99.90;;;;;;5069418;28;20417;-80
2022/07/04 04:52:09;;;;;;;3.17;2.97;;;20.40;99.90;;;;;;5068867;28;20441;-82
2022/07/04 04:54:54;;;;;;;2.83;2.63;;;20.40;99.90;;;;;;5069720;28;20443;-83
2022/07/04 04:57:39;;;;;;;4.07;2.37;;;20.30;99.90;;;;;;5053075;28;20402;-82
2022/07/04 05:00:23;;;;;;;5.17;3.07;;;20.40;99.90;;;;;;5052887;28;20503;-82
2022/07/04 05:03:07;;;;;;;5.30;3.10;;;20.50;99.90;;;;;;5051474;28;20502;-83
2022/07/04 05:05:52;;;;;;;4.13;2.53;;;20.60;99.90;;;;;;5049687;28;20379;-83
2022/07/04 05:08:36;;;;;;;3.40;2.30;;;20.60;99.90;;;;;;5050408;28;20479;-82
2022/07/04 05:11:21;;;;;;;10.47;2.60;;;20.70;99.90;;;;;;5050649;28;20453;-83
2022/07/04 05:14:06;;;;;;;2.70;2.50;;;20.90;99.90;;;;;;5049191;28;20482;-83
2022/07/04 05:16:50;;;;;;;6.30;2.43;;;20.90;99.90;;;;;;5057391;28;20434;-83
2022/07/04 05:19:35;;;;;;;4.27;2.40;;;20.80;99.90;;;;;;5053922;28;20488;-83
2022/07/04 05:22:19;;;;;;;3.30;3.00;;;20.90;99.90;;;;;;5060269;28;20428;-83
2022/07/04 05:25:04;;;;;;;6.70;2.90;;;21.00;99.90;;;;;;5069407;28;20442;-82
2022/07/04 05:27:49;;;;;;;6.53;3.80;;;21.00;99.90;;;;;;5068314;28;20429;-82
2022/07/04 05:30:33;;;;;;;14.50;2.70;;;21.00;99.90;;;;;;5063265;28;20429;-81
2022/07/04 05:33:18;;;;;;;4.80;2.53;;;21.10;99.90;;;;;;5068873;28;20457;-82
2022/07/04 05:36:04;;;;;;;3.67;2.60;;;21.30;99.90;;;;;;5061599;28;20584;-82
2022/07/04 05:38:49;;;;;;;8.27;3.03;;;21.20;99.90;;;;;;5058176;28;20450;-82
2022/07/04 05:41:33;;;;;;;7.20;3.33;;;21.30;99.90;;;;;;5071555;28;20472;-80
2022/07/04 05:44:18;;;;;;;3.70;2.97;;;21.40;99.90;;;;;;5072819;28;20445;-82
2022/07/04 05:47:02;;;;;;;2.43;2.33;;;21.50;99.90;;;;;;5066216;28;20429;-82
2022/07/04 05:49:47;;;;;;;4.80;2.43;;;21.70;99.90;;;;;;5067311;28;20537;-83
2022/07/04 05:52:31;;;;;;;4.33;2.87;;;21.70;99.90;;;;;;5056290;28;20441;-83
2022/07/04 05:55:16;;;;;;;3.70;3.27;;;21.50;99.90;;;;;;5062986;28;20879;-83
2022/07/04 05:58:01;;;;;;;3.23;2.93;;;21.60;99.90;;;;;;5053397;28;20495;-83
2022/07/04 06:00:46;;;;;;;2.07;1.97;;;21.70;99.90;;;;;;5049259;28;20432;-79
2022/07/04 06:03:31;;;;;;;6.93;3.27;;;21.90;99.90;;;;;;5045075;28;20950;-80
2022/07/04 06:06:16;;;;;;;2.90;2.70;;;22.40;99.90;;;;;;5051384;28;20444;-79
2022/07/04 06:09:01;;;;;;;2.77;2.57;;;22.90;99.90;;;;;;5052872;28;20556;-79
2022/07/04 06:11:46;;;;;;;4.93;2.47;;;23.30;99.90;;;;;;5037153;28;20957;-78
2022/07/04 06:14:31;;;;;;;2.40;2.20;;;23.50;99.90;;;;;;5044010;28;20930;-78
2022/07/04 06:17:15;;;;;;;5.87;2.67;;;23.70;99.90;;;;;;5048967;28;20437;-79
2022/07/04 06:20:00;;;;;;;3.07;2.53;;;23.70;99.90;;;;;;5038721;28;20971;-79
2022/07/04 06:22:47;;;;;;;2.73;2.53;;;23.80;99.90;;;;;;5046982;28;20540;-80
2022/07/04 06:25:31;;;;;;;2.27;2.17;;;24.00;99.90;;;;;;5052249;28;20484;-80
2022/07/04 06:28:17;;;;;;;4.43;2.90;;;24.10;99.90;;;;;;5048838;28;20425;-80
2022/07/04 06:31:01;;;;;;;6.23;2.20;;;24.00;99.90;;;;;;5050035;28;20430;-79
2022/07/04 06:36:44;;;;;;;2.67;2.23;;;24.00;99.90;;;;;;5045200;28;20433;-79
2022/07/04 06:39:29;;;;;;;2.40;2.30;;;24.00;99.90;;;;;;5035785;28;20469;-79
2022/07/04 06:42:13;;;;;;;3.50;2.67;;;24.10;99.90;;;;;;5053247;28;20484;-79
2022/07/04 06:44:57;;;;;;;2.43;2.10;;;24.00;99.90;;;;;;5053598;28;20941;-79
2022/07/04 06:47:42;;;;;;;2.73;2.53;;;24.00;99.90;;;;;;5039906;28;20934;-79
2022/07/04 06:50:27;;;;;;;3.03;2.50;;;24.00;99.90;;;;;;5052499;28;20416;-79
2022/07/04 06:53:12;;;;;;;3.17;2.80;;;24.10;99.90;;;;;;5051483;28;20484;-79
2022/07/04 06:55:57;;;;;;;2.10;2.00;;;24.10;99.90;;;;;;5050600;28;20461;-79
2022/07/04 06:58:41;;;;;;;2.90;2.70;;;24.20;99.90;;;;;;5046286;28;20807;-80
2022/07/04 07:01:26;;;;;;;5.80;3.10;;;24.20;99.90;;;;;;5066156;28;20454;-79
2022/07/04 07:04:11;;;;;;;3.17;2.97;;;23.90;99.90;;;;;;5049166;28;20430;-80
2022/07/04 07:06:55;;;;;;;3.70;3.00;;;23.00;99.90;;;;;;5031480;28;20559;-79
2022/07/04 07:09:39;;;;;;;2.73;2.53;;;23.00;99.90;;;;;;5017868;28;20505;-79
2022/07/04 07:12:23;;;;;;;2.87;2.67;;;22.80;99.90;;;;;;5030208;28;20454;-79
2022/07/04 07:15:09;;;;;;;7.10;3.33;;;22.80;99.90;;;;;;5034290;28;20464;-78
2022/07/04 07:17:53;;;;;;;3.00;2.80;;;22.70;99.90;;;;;;5025844;28;20458;-80
2022/07/04 07:20:38;;;;;;;3.20;2.90;;;22.60;99.90;;;;;;5027876;28;20481;-79
2022/07/04 07:23:22;;;;;;;8.47;2.70;;;22.70;99.90;;;;;;5040256;28;21207;-80
2022/07/04 07:26:09;;;;;;;2.67;2.47;;;22.80;99.90;;;;;;5019313;28;20454;-80
2022/07/04 07:28:54;;;;;;;3.57;3.33;;;22.80;99.90;;;;;;5002669;28;20532;-82
2022/07/04 07:31:39;;;;;;;2.97;2.77;;;22.80;99.90;;;;;;5032609;28;20517;-82
2022/07/04 07:34:23;;;;;;;3.90;3.50;;;22.60;99.90;;;;;;5011503;28;20452;-81
2022/07/04 07:37:08;;;;;;;3.20;2.90;;;22.70;99.90;;;;;;5037778;28;20426;-81
2022/07/04 07:39:53;;;;;;;3.13;2.80;;;22.80;99.90;;;;;;5022054;28;20462;-82
2022/07/04 07:42:37;;;;;;;3.30;3.10;;;22.80;99.90;;;;;;5036630;28;20494;-82
2022/07/04 07:45:22;;;;;;;3.27;2.97;;;22.80;99.90;;;;;;5021163;28;20415;-82
2022/07/04 07:48:07;;;;;;;3.17;2.87;;;22.70;99.90;;;;;;5030059;28;21060;-82
2022/07/04 07:50:51;;;;;;;7.10;3.43;;;22.80;99.90;;;;;;5029348;28;20433;-80
2022/07/04 07:53:35;;;;;;;3.40;3.20;;;22.40;99.90;;;;;;5024947;28;20933;-82
2022/07/04 07:56:20;;;;;;;3.43;3.17;;;22.80;99.90;;;;;;5016816;28;20469;-82
2022/07/04 07:59:06;;;;;;;5.70;5.30;;;22.80;99.90;;;;;;5030186;28;20767;-79
2022/07/04 08:01:50;;;;;;;7.03;3.60;;;23.00;99.90;;;;;;5041686;28;20480;-78
2022/07/04 08:04:34;;;;;;;3.33;3.03;;;22.60;99.90;;;;;;5054885;28;20446;-79
2022/07/04 08:07:19;;;;;;;3.67;3.37;;;22.50;99.90;;;;;;5052912;28;20444;-79
2022/07/04 08:10:04;;;;;;;3.43;3.13;;;22.70;99.90;;;;;;5049063;28;20441;-78
2022/07/04 08:12:50;;;;;;;3.60;3.40;;;23.00;99.90;;;;;;5058171;28;20772;-81
2022/07/04 08:15:34;;;;;;;3.67;3.43;;;23.10;99.90;;;;;;5058096;28;20962;-82
2022/07/04 08:18:19;;;;;;;6.63;3.43;;;22.40;99.90;;;;;;5043592;28;20538;-82
2022/07/04 08:21:04;;;;;;;4.10;3.70;;;22.60;99.90;;;;;;5044532;28;20472;-83
2022/07/04 08:23:49;;;;;;;5.23;4.83;;;23.10;99.90;;;;;;5061253;28;20472;-82
2022/07/04 08:26:33;;;;;;;3.40;3.10;;;23.30;99.90;;;;;;5041398;28;20444;-83
2022/07/04 08:29:19;;;;;;;3.90;3.60;;;23.50;99.90;;;;;;5040158;28;20488;-79
2022/07/04 08:32:07;;;;;;;3.90;3.60;;;23.70;99.90;;;;;;5039613;28;20858;-82
2022/07/04 08:34:54;;;;;;;4.10;3.80;;;23.80;99.90;;;;;;5062484;28;20906;-83
2022/07/04 08:37:40;;;;;;;3.87;3.10;;;23.90;99.90;;;;;;5025498;28;20486;-83
2022/07/04 08:40:27;;;;;;;4.83;4.40;;;24.00;99.90;;;;;;5051630;28;20666;-82
2022/07/04 08:43:14;;;;;;;4.43;4.13;;;24.10;99.90;;;;;;5052907;28;20425;-83
2022/07/04 08:46:00;;;;;;;6.60;3.27;;;24.00;99.90;;;;;;5063016;28;20929;-82
2022/07/04 08:48:54;;;;;;;5.43;3.47;;;24.20;99.90;;;;;;5043431;28;20437;-84
2022/07/04 08:51:51;;;;;;;3.30;3.10;;;24.00;99.90;;;;;;5039702;28;20510;-82
2022/07/04 09:00:41;;;;;;;6.43;4.73;;;24.00;99.90;;;;;;5042351;28;20441;-82
2022/07/04 09:03:28;;;;;;;5.73;3.80;;;24.20;99.90;;;;;;5058199;28;20437;-82
2022/07/04 09:06:13;;;;;;;7.03;3.97;;;24.20;99.90;;;;;;5057800;28;20426;-83
2022/07/04 09:09:00;;;;;;;4.80;4.40;;;24.10;99.90;;;;;;5061883;28;20433;-83
2022/07/04 09:11:44;;;;;;;9.03;3.70;;;24.30;99.90;;;;;;5025567;28;20429;-82
2022/07/04 09:14:29;;;;;;;4.23;3.83;;;24.20;99.90;;;;;;5045405;28;20421;-83
2022/07/04 09:17:14;;;;;;;4.40;4.00;;;24.40;99.90;;;;;;5040855;28;20552;-82
2022/07/04 09:20:19;;;;;;;3.73;3.43;;;24.30;99.90;;;;;;5064725;28;20456;-80
2022/07/04 09:23:18;;;;;;;3.97;3.67;;;24.70;99.90;;;;;;5053770;28;20436;-83
2022/07/04 09:26:13;;;;;;;6.00;3.83;;;24.90;99.90;;;;;;5050746;28;20461;-83
2022/07/04 09:28:58;;;;;;;3.47;2.63;;;25.10;99.90;;;;;;5041149;28;20671;-83
2022/07/04 09:31:42;;;;;;;3.50;3.23;;;25.10;99.90;;;;;;5050895;28;20778;-83
2022/07/04 09:34:28;;;;;;;3.10;2.90;;;25.10;99.90;;;;;;5057718;28;20903;-80
2022/07/04 09:37:12;;;;;;;4.90;2.37;;;25.40;99.90;;;;;;5045838;28;20835;-82
2022/07/04 09:39:57;;;;;;;2.90;2.20;;;25.50;99.90;;;;;;5043586;28;20549;-80
2022/07/04 09:42:41;;;;;;;2.73;2.53;;;25.60;99.90;;;;;;5056238;28;20465;-82
2022/07/04 09:45:29;;;;;;;5.37;3.50;;;25.70;99.90;;;;;;5054158;28;20480;-82
2022/07/04 09:48:14;;;;;;;4.07;2.97;;;25.80;99.90;;;;;;5043440;28;20539;-82
2022/07/04 09:50:58;;;;;;;2.87;2.67;;;26.00;99.90;;;;;;5021259;28;20438;-82
2022/07/04 09:53:43;;;;;;;2.70;2.50;;;25.90;99.90;;;;;;5006114;28;20438;-79
2022/07/04 09:56:48;;;;;;;3.27;2.90;;;26.10;99.90;;;;;;4999040;28;20463;-82
2022/07/04 09:59:34;;;;;;;3.70;3.40;;;26.10;99.90;;;;;;4978177;28;20495;-79
2022/07/04 10:02:19;;;;;;;3.03;1.80;;;25.70;99.90;;;;;;4983577;28;20503;-80
2022/07/04 10:05:07;;;;;;;2.13;2.03;;;26.10;96.80;;;;;;4998075;28;20471;-79
2022/07/04 10:07:54;;;;;;;1.90;1.80;;;26.30;93.10;;;;;;5000592;28;20504;-80
2022/07/04 10:10:40;;;;;;;2.83;2.13;;;26.40;94.00;;;;;;5003832;28;20539;-82
2022/07/04 10:13:25;;;;;;;5.70;2.50;;;26.50;96.20;;;;;;5003630;28;20451;-82
2022/07/04 10:16:11;;;;;;;2.60;2.33;;;26.40;96.30;;;;;;5006226;28;20451;-81
2022/07/04 10:18:56;;;;;;;2.63;1.70;;;26.70;93.70;;;;;;5004267;28;20468;-80
2022/07/04 10:21:41;;;;;;;2.17;2.07;;;26.70;93.20;;;;;;5011671;28;20503;-81
2022/07/04 10:24:45;;;;;;;2.27;2.07;;;26.90;92.70;;;;;;4969632;28;20802;-83
2022/07/04 10:27:31;;;;;;;3.90;2.17;;;26.70;91.50;;;;;;5001793;28;20520;-83
2022/07/04 10:30:20;;;;;;;5.87;2.60;;;27.10;92.90;;;;;;4992161;28;20424;-80
2022/07/04 10:33:08;;;;;;;2.90;2.10;;;27.20;93.30;;;;;;4987624;28;20551;-82
2022/07/04 10:36:09;;;;;;;2.77;2.57;;;27.30;94.20;;;;;;4983746;28;20524;-82
2022/07/04 10:38:58;;;;;;;5.47;2.53;;;27.50;94.00;;;;;;5002617;28;20530;-84
2022/07/04 10:41:57;;;;;;;4.53;2.57;;;27.60;91.50;;;;;;4999316;28;20431;-82
2022/07/04 10:44:44;;;;;;;2.90;2.70;;;27.60;91.50;;;;;;4992033;28;20535;-82
2022/07/04 10:47:30;;;;;;;2.33;2.00;;;27.60;91.30;;;;;;5004613;28;20428;-82
2022/07/04 10:50:28;;;;;;;2.30;2.20;;;27.60;91.60;;;;;;4997082;28;20475;-84
2022/07/04 10:53:13;;;;;;;2.20;2.10;;;27.80;92.90;;;;;;4968726;28;20436;-84
2022/07/04 10:56:22;;;;;;;2.77;2.57;;;27.90;92.00;;;;;;5021960;28;20454;-84
2022/07/04 10:59:11;;;;;;;2.03;1.90;;;27.90;92.00;;;;;;5053156;28;20451;-84
2022/07/04 11:02:24;;;;;;;2.80;1.97;;;27.90;91.10;;;;;;5045146;28;20490;-84
2022/07/04 11:05:11;;;;;;;4.70;2.50;;;28.00;90.70;;;;;;5035397;28;20500;-84
2022/07/04 11:07:59;;;;;;;2.00;1.90;;;27.60;91.20;;;;;;5038772;28;20428;-84
2022/07/04 11:11:05;;;;;;;1.90;1.80;;;27.80;90.00;;;;;;5036439;28;20444;-83
2022/07/04 11:14:22;;;;;;;2.20;2.10;;;28.00;91.90;;;;;;5059949;28;20432;-84
2022/07/04 11:17:12;;;;;;;3.20;2.10;;;28.50;91.80;;;;;;5055865;28;20513;-85
2022/07/04 11:20:00;;;;;;;2.60;2.40;;;28.60;90.00;;;;;;5040177;28;20456;-84
2022/07/04 11:22:45;;;;;;;2.17;1.97;;;29.00;91.30;;;;;;5025463;28;20510;-82
2022/07/04 11:25:30;;;;;;;3.30;2.30;;;29.30;88.20;;;;;;5057991;28;20475;-84
2022/07/04 11:28:23;;;;;;;2.40;2.20;;;29.30;89.60;;;;;;5035609;28;20484;-82
2022/07/04 11:31:09;;;;;;;2.00;1.87;;;28.70;82.90;;;;;;5056560;28;20513;-83
2022/07/04 11:33:55;;;;;;;2.13;2.03;;;28.70;85.00;;;;;;5036552;28;20476;-83
2022/07/04 11:36:42;;;;;;;2.30;2.10;;;28.00;82.70;;;;;;5040347;28;20424;-85
2022/07/04 11:39:27;;;;;;;2.27;2.07;;;28.20;85.90;;;;;;5045601;28;21792;-86
2022/07/04 11:45:07;;;;;;;2.73;2.00;;;29.20;80.40;;;;;;5040731;28;20441;-85
2022/07/04 11:47:51;;;;;;;7.07;2.00;;;28.80;79.30;;;;;;5048373;28;20475;-84
2022/07/04 11:50:36;;;;;;;2.23;2.13;;;28.60;79.10;;;;;;5030694;28;20428;-84
2022/07/04 11:53:21;;;;;;;2.30;2.10;;;29.00;82.90;;;;;;5049722;28;20745;-83
2022/07/04 11:56:05;;;;;;;2.93;2.40;;;29.00;80.90;;;;;;5037092;28;20500;-83
2022/07/04 11:58:49;;;;;;;5.40;2.00;;;28.60;83.70;;;;;;5046209;28;20520;-83
2022/07/04 12:01:34;;;;;;;2.80;2.23;;;28.40;82.20;;;;;;5038653;28;20485;-82
2022/07/04 12:04:23;;;;;;;2.43;2.23;;;28.40;84.20;;;;;;5053677;28;20481;-84
2022/07/04 12:07:12;;;;;;;2.93;2.03;;;28.90;84.00;;;;;;5037353;28;20460;-82
2022/07/04 12:09:56;;;;;;;1.47;1.37;;;29.30;82.20;;;;;;5042033;28;20427;-82
2022/07/04 12:12:55;;;;;;;2.53;2.33;;;29.20;81.60;;;;;;5049789;28;20460;-83
2022/07/04 12:15:48;;;;;;;2.73;2.00;;;29.70;73.50;;;;;;5033204;28;20456;-85
2022/07/04 12:18:35;;;;;;;1.80;1.70;;;30.00;69.20;;;;;;4994505;28;20435;-82
2022/07/04 12:21:22;;;;;;;2.27;1.90;;;30.00;66.30;;;;;;5005191;28;21085;-80
2022/07/04 12:24:06;;;;;;;5.07;2.00;;;29.50;65.10;;;;;;4992327;28;20439;-82
2022/07/04 12:26:51;;;;;;;4.87;2.43;;;29.70;69.40;;;;;;4997046;28;20235;-82
2022/07/04 12:29:35;;;;;;;2.63;2.22;;;30.10;69.20;;;;;;5000945;28;20491;-83
2022/07/04 12:32:21;;;;;;;1.90;1.80;;;30.30;67.40;;;;;;4996720;28;20272;-83
2022/07/04 12:35:05;;;;;;;3.15;2.20;;;30.20;65.70;;;;;;4999146;28;20211;-83
2022/07/04 12:38:08;;;;;;;3.70;1.67;;;30.40;65.90;;;;;;4997781;28;20216;-83
2022/07/04 12:41:07;;;;;;;2.83;1.75;;;30.70;67.40;;;;;;5011544;28;20680;-85
2022/07/04 12:43:52;;;;;;;2.08;1.90;;;30.90;65.60;;;;;;5012587;28;20558;-83
2022/07/04 12:46:38;;;;;;;2.10;1.70;;;31.20;59.60;;;;;;5003918;28;20207;-82
2022/07/04 12:49:23;;;;;;;1.70;1.60;;;31.50;59.10;;;;;;5001162;28;20263;-82
2022/07/04 12:52:13;;;;;;;1.73;1.63;;;31.50;58.70;;;;;;5002661;28;20271;-83
2022/07/04 12:55:14;;;;;;;2.63;1.90;;;31.80;57.10;;;;;;5007335;28;20271;-80
2022/07/04 12:57:59;;;;;;;3.75;1.80;;;32.30;58.20;;;;;;5014582;28;20183;-83
2022/07/04 13:00:43;;;;;;;1.80;1.70;;;32.70;57.60;;;;;;5018956;28;20218;-81
2022/07/04 13:03:28;;;;;;;3.40;1.70;;;32.20;55.50;;;;;;5018717;28;20247;-80
2022/07/04 13:06:13;;;;;;;2.38;2.17;;;32.10;55.50;;;;;;5018805;28;20239;-81
2022/07/04 13:08:57;;;;;;;2.15;1.95;;;32.50;56.10;;;;;;5038512;28;20218;-82
2022/07/04 13:14:41;;;;;;;1.70;1.60;;;32.90;57.60;;;;;;5058584;28;20187;-82
2022/07/04 13:17:26;;;;;;;1.70;1.60;;;33.10;55.20;;;;;;5058705;28;20234;-83
2022/07/04 13:20:12;;;;;;;3.10;1.77;;;32.80;55.60;;;;;;5058777;28;20232;-83
2022/07/04 13:22:57;;;;;;;2.00;1.80;;;33.30;54.00;;;;;;5065271;28;20166;-83
2022/07/04 13:25:41;;;;;;;1.63;1.52;;;33.40;53.30;;;;;;5062012;28;20329;-82
2022/07/04 13:28:47;;;;;;;1.75;1.58;;;33.30;54.50;;;;;;5061419;28;20190;-83
2022/07/04 13:31:31;;;;;;;1.83;1.73;;;33.50;52.80;;;;;;5037922;28;20194;-83
2022/07/04 13:34:16;;;;;;;2.10;1.60;;;33.50;55.40;;;;;;5039476;28;20195;-81
2022/07/04 13:37:01;;;;;;;3.28;1.70;;;33.20;54.30;;;;;;5039431;28;20176;-82
2022/07/04 13:39:46;;;;;;;2.95;1.67;;;33.20;52.30;;;;;;5040393;28;20254;-82
2022/07/04 13:45:32;;;;;;;3.92;1.60;;;32.50;51.10;;;;;;5021849;28;20195;-80
2022/07/04 13:48:17;;;;;;;1.98;1.88;;;31.10;51.90;;;;;;5043204;28;20330;-80
2022/07/04 13:51:01;;;;;;;4.72;1.90;;;31.50;52.80;;;;;;5021467;28;20195;-80
2022/07/04 13:53:45;;;;;;;1.70;1.60;;;31.40;52.90;;;;;;5029463;28;20202;-81
2022/07/04 13:56:30;;;;;;;2.50;1.85;;;31.20;53.20;;;;;;5032253;28;20218;-85
2022/07/04 13:59:14;;;;;;;2.05;1.85;;;31.10;53.50;;;;;;5031001;28;20343;-84
2022/07/04 14:02:02;;;;;;;1.90;1.80;;;30.40;54.00;;;;;;5031252;28;20732;-82
2022/07/04 14:04:47;;;;;;;1.75;1.65;;;30.70;54.20;;;;;;5029389;28;20191;-83
2022/07/04 14:07:33;;;;;;;1.83;1.73;;;31.30;55.00;;;;;;5023124;28;20253;-84
2022/07/04 14:10:18;;;;;;;2.33;2.13;;;31.50;52.20;;;;;;5022485;28;20219;-84
2022/07/04 14:13:02;;;;;;;1.92;1.70;;;31.90;52.50;;;;;;5034959;28;20175;-84
2022/07/04 14:15:47;;;;;;;8.57;1.67;;;32.00;54.50;;;;;;5049074;28;20209;-83
2022/07/04 14:18:32;;;;;;;1.70;1.60;;;31.70;49.90;;;;;;5025929;28;20245;-83
2022/07/04 14:21:17;;;;;;;2.65;1.50;;;31.10;50.40;;;;;;5061409;28;20178;-84
2022/07/04 14:24:03;;;;;;;1.77;1.67;;;31.40;50.90;;;;;;5018034;28;20195;-84
2022/07/04 14:26:47;;;;;;;1.58;1.48;;;31.80;51.10;;;;;;5050683;28;20185;-82
2022/07/04 14:29:34;;;;;;;1.70;1.60;;;31.90;52.90;;;;;;5053410;28;21703;-83
2022/07/04 14:32:18;;;;;;;1.98;1.80;;;32.20;53.10;;;;;;5056282;28;20197;-84
2022/07/04 14:35:03;;;;;;;2.58;1.55;;;32.20;51.10;;;;;;5062399;28;20249;-84
2022/07/04 14:37:48;;;;;;;2.30;2.10;;;32.20;53.60;;;;;;5061212;28;20205;-82
2022/07/04 14:40:33;;;;;;;3.55;1.80;;;32.40;52.90;;;;;;5058788;28;20651;-83
2022/07/04 14:43:17;;;;;;;1.50;1.40;;;32.20;51.80;;;;;;5038678;28;20260;-82
2022/07/04 14:46:02;;;;;;;3.40;1.50;;;32.40;52.20;;;;;;5019932;28;20162;-82
2022/07/04 14:48:47;;;;;;;1.70;1.40;;;32.40;51.60;;;;;;5030847;28;20214;-84